Flight Track Log - Related Links

Times and Time Zones

All times are in EDT time to prevent confusion due to time zone crossing. See the N566UA flight status page for this flight to view local times or setup timezone preferences in your user account.

Time Position Orientation Groundspeed Altitude Reporting Facility
EDT Latitude Longitude Course Direction KTS MPH feet Rate Location/Type
Thu 12:42:24 PM 29.9778 -95.3367 334° Northwest 209 241 600  Level Houston Center
Thu 12:43:01 PM 29.9769 -95.3731 268° West 186 214 2,000 2,000 Climbing Houston Center
Thu 12:44:03 PM 30.0356 -95.3925 344° North 253 291 3,900 1,512 Climbing Houston Center
Thu 12:45:00 PM 30.2607 -95.5004 334° Northwest  Level FlightAware Approximate
Thu 12:45:04 PM 30.1069 -95.3936 359° North 244 281 5,100  Level Houston Center
Thu 12:46:00 PM 30.3549 -95.5527 334° Northwest  Level FlightAware Approximate
Thu 12:46:00 PM 30.1728 -95.4025 353° North 264 304 7,900  Level Houston Center
Thu 12:47:00 PM 30.4492 -95.6051 334° Northwest  Level FlightAware Approximate
Thu 12:47:16 PM 30.2422 -95.4494 330° Northwest 264 304 11,000  Level Houston Center
Thu 12:48:18 PM 30.3308 -95.5106 329° Northwest 312 359 13,700 2,613 Climbing Houston Center
Thu 12:49:20 PM 30.4083 -95.5644 329° Northwest 324 373 16,400 2,352 Climbing Houston Center
Thu 12:50:23 PM 30.4889 -95.6206 329° Northwest 335 386 18,600 2,112 Climbing Houston Center
Thu 12:51:25 PM 30.5744 -95.6758 331° Northwest 352 405 20,800 2,032 Climbing Houston Center
Thu 12:52:27 PM 30.6694 -95.7258 336° Northwest 371 427 22,800 2,032 Climbing Houston Center
Thu 12:53:29 PM 30.7819 -95.7853 336° Northwest 373 429 25,000 1,935 Climbing Houston Center
Thu 12:54:31 PM 30.8817 -95.8386 335° Northwest 383 441 26,800 1,548 Climbing Houston Center
Thu 12:55:33 PM 30.9831 -95.8925 336° Northwest 392 451 28,200 1,403 Climbing Houston Center
Thu 12:56:35 PM 31.0889 -95.9500 335° Northwest 406 467 29,700 1,333 Climbing Houston Center
Thu 12:57:03 PM 31.1531 -95.9789 339° North 421 484 30,200 1,159 Climbing Fort Worth Center
Thu 12:58:03 PM 31.2661 -96.0231 342° North 421 484 31,400 1,300 Climbing Fort Worth Center
Thu 12:59:03 PM 31.3836 -96.0678 342° North 427 491 32,800 1,450 Climbing Fort Worth Center
Thu 01:00:03 PM 31.4947 -96.1100 342° North 427 491 34,300 1,350 Climbing Fort Worth Center
Thu 01:01:03 PM 31.6100 -96.1572 341° North 427 491 35,500 850 Climbing Fort Worth Center
Thu 01:02:03 PM 31.7025 -96.2314 326° Northwest 421 484 36,000 250 Climbing Fort Worth Center
Thu 01:03:03 PM 31.7411 -96.3433 292° West 398 458 36,000  Level Fort Worth Center
Thu 01:04:03 PM 31.7778 -96.4797 288° West 417 480 36,000  Level Fort Worth Center
Thu 01:05:03 PM 31.8203 -96.6114 291° West 427 491 36,000  Level Fort Worth Center
Thu 01:06:03 PM 31.8586 -96.7431 289° West 433 498 36,000  Level Fort Worth Center
Thu 01:07:03 PM 31.8950 -96.8775 288° West 433 498 36,000  Level Fort Worth Center
Thu 01:08:03 PM 31.9308 -97.0069 288° West 426 490 36,000  Level Fort Worth Center
Thu 01:09:03 PM 31.9708 -97.1561 288° West 426 490 36,000  Level Fort Worth Center
Thu 01:10:03 PM 32.0086 -97.2861 289° West 420 483 36,000  Level Fort Worth Center
Thu 01:11:03 PM 32.0464 -97.4183 289° West 420 483 36,000  Level Fort Worth Center
Thu 01:12:03 PM 32.0839 -97.5506 289° West 425 489 36,000  Level Fort Worth Center
Thu 01:13:03 PM 32.1192 -97.6708 289° West 425 489 36,000  Level Fort Worth Center
Thu 01:14:03 PM 32.1606 -97.8036 290° West 425 489 36,000  Level Fort Worth Center
Thu 01:15:03 PM 32.1975 -97.9339 289° West 425 489 36,000  Level Fort Worth Center
Thu 01:16:03 PM 32.2367 -98.0642 290° West 425 489 36,000  Level Fort Worth Center
Thu 01:17:03 PM 32.2736 -98.1947 289° West 425 489 36,000  Level Fort Worth Center
Thu 01:18:03 PM 32.3164 -98.3400 289° West 425 489 36,000  Level Fort Worth Center
Thu 01:19:03 PM 32.3550 -98.4733 289° West 425 489 36,000  Level Fort Worth Center
Thu 01:20:03 PM 32.3892 -98.6017 288° West 420 483 36,000  Level Fort Worth Center
Thu 01:21:03 PM 32.4297 -98.7328 290° West 425 489 36,000  Level Fort Worth Center
Thu 01:22:03 PM 32.4597 -98.8414 288° West 419 482 36,000  Level Fort Worth Center
Thu 01:23:03 PM 32.4958 -98.9678 289° West 414 476 36,000  Level Fort Worth Center
Thu 01:24:03 PM 32.5339 -99.0964 289° West 414 476 36,000  Level Fort Worth Center
Thu 01:25:03 PM 32.5697 -99.2278 288° West 414 476 36,000  Level Fort Worth Center
Thu 01:26:03 PM 32.6053 -99.3567 288° West 414 476 36,000  Level Fort Worth Center
Thu 01:27:03 PM 32.6408 -99.4858 288° West 414 476 36,000  Level Fort Worth Center
Thu 01:28:03 PM 32.6761 -99.6150 288° West 414 476 36,000  Level Fort Worth Center
Thu 01:29:03 PM 32.7136 -99.7442 289° West 414 476 36,000  Level Fort Worth Center
Thu 01:30:03 PM 32.7506 -99.8786 288° West 414 476 36,000  Level Fort Worth Center
Thu 01:31:03 PM 32.7917 -100.0231 289° West 419 482 36,000  Level Fort Worth Center
Thu 01:32:03 PM 32.8244 -100.1475 287° West 424 488 36,000  Level Fort Worth Center
Thu 01:33:03 PM 32.8592 -100.2772 288° West 419 482 36,000  Level Fort Worth Center
Thu 01:34:03 PM 32.8936 -100.4094 287° West 419 482 36,000  Level Fort Worth Center
Thu 01:35:03 PM 32.9281 -100.5392 288° West 419 482 36,000  Level Fort Worth Center
Thu 01:36:03 PM 32.9642 -100.6692 288° West 419 482 36,000  Level Fort Worth Center
Thu 01:37:03 PM 32.9983 -100.7994 287° West 419 482 36,000  Level Fort Worth Center
Thu 01:38:03 PM 33.0325 -100.9294 287° West 419 482 36,000  Level Fort Worth Center
Thu 01:39:03 PM 33.0625 -101.0422 288° West 413 475 36,000  Level Fort Worth Center
Thu 01:40:03 PM 33.1022 -101.1853 288° West 408 470 36,000  Level Fort Worth Center
Thu 01:41:03 PM 33.1319 -101.3006 287° West 408 470 36,000  Level Fort Worth Center
Thu 01:42:03 PM 33.1672 -101.4411 287° West 408 470 36,000  Level Fort Worth Center
Thu 01:43:03 PM 33.1989 -101.5592 288° West 408 470 36,000  Level Fort Worth Center
Thu 01:44:03 PM 33.2336 -101.7022 286° West 413 475 36,000  Level Fort Worth Center
Thu 01:45:03 PM 33.2631 -101.8206 287° West 408 470 36,000  Level Fort Worth Center
Thu 01:46:03 PM 33.2997 -101.9639 287° West 408 470 36,000  Level Fort Worth Center
Thu 01:47:03 PM 33.3344 -102.0925 288° West 408 470 36,000  Level Fort Worth Center
Thu 01:48:03 PM 33.3717 -102.2139 290° West 403 464 36,000  Level Fort Worth Center
Thu 01:49:03 PM 33.4108 -102.3378 291° West 403 464 36,000  Level Fort Worth Center
Thu 01:50:03 PM 33.4497 -102.4619 291° West 403 464 36,000  Level Fort Worth Center
Thu 01:52:15 PM 33.5261 -102.7139 290° West 394 453 36,000  Level Albuquerque Center
Thu 01:53:17 PM 33.5628 -102.8369 290° West 393 452 36,000  Level Albuquerque Center
Thu 01:54:19 PM 33.6064 -102.9836 290° West 392 451 36,000 -48 Level Albuquerque Center
Thu 01:55:21 PM 33.6425 -103.1083 289° West 390 449 35,900  Descending Albuquerque Center
Thu 01:56:23 PM 33.6764 -103.2283 289° West 390 449 36,000 48 Climbing Albuquerque Center
Thu 01:57:26 PM 33.7108 -103.3481 289° West 386 444 36,000  Level Albuquerque Center
Thu 01:58:28 PM 33.7475 -103.4639 291° West 377 434 36,000  Level Albuquerque Center
Thu 01:59:30 PM 33.7883 -103.6072 289° West 376 433 36,000  Level Albuquerque Center
Thu 02:00:32 PM 33.8250 -103.7336 289° West 383 441 36,000  Level Albuquerque Center
Thu 02:01:34 PM 33.8603 -103.8542 289° West 383 441 36,000  Level Albuquerque Center
Thu 02:02:36 PM 33.8964 -103.9836 289° West 381 438 36,000  Level Albuquerque Center
Thu 02:03:38 PM 33.9311 -104.1047 289° West 383 441 36,000  Level Albuquerque Center
Thu 02:04:40 PM 33.9683 -104.2364 289° West 387 445 36,000  Level Albuquerque Center
Thu 02:05:42 PM 34.0022 -104.3578 289° West 384 442 36,000  Level Albuquerque Center
Thu 02:06:44 PM 34.0347 -104.4722 289° West 387 445 36,000  Level Albuquerque Center
Thu 02:07:46 PM 34.0756 -104.6175 289° West 387 445 36,000  Level Albuquerque Center
Thu 02:08:48 PM 34.1108 -104.7397 289° West 383 441 36,000  Level Albuquerque Center
Thu 02:09:50 PM 34.1458 -104.8672 288° West 392 451 36,000  Level Albuquerque Center
Thu 02:10:52 PM 34.1806 -104.9933 288° West 392 451 36,000  Level Albuquerque Center
Thu 02:11:54 PM 34.2158 -105.1203 289° West 394 453 36,000  Level Albuquerque Center
Thu 02:12:56 PM 34.2511 -105.2472 289° West 395 455 36,000  Level Albuquerque Center
Thu 02:13:58 PM 34.2856 -105.3728 288° West 392 451 36,000  Level Albuquerque Center
Thu 02:15:00 PM 34.3194 -105.4994 288° West 392 451 36,000  Level Albuquerque Center
Thu 02:16:02 PM 34.3600 -105.6494 288° West 396 456 36,000  Level Albuquerque Center
Thu 02:17:04 PM 34.3872 -105.7794 284° West 396 456 36,000  Level Albuquerque Center
Thu 02:18:06 PM 34.4142 -105.9108 284° West 398 458 36,000  Level Albuquerque Center
Thu 02:19:08 PM 34.4378 -106.0442 282° West 400 460 36,000  Level Albuquerque Center
Thu 02:20:10 PM 34.4639 -106.1781 283° West 402 463 36,000  Level Albuquerque Center
Thu 02:21:12 PM 34.4908 -106.3225 283° West 404 465 36,000  Level Albuquerque Center
Thu 02:22:14 PM 34.5167 -106.4556 283° West 405 466 36,000  Level Albuquerque Center
Thu 02:23:16 PM 34.5406 -106.5883 282° West 403 464 36,000  Level Albuquerque Center
Thu 02:24:18 PM 34.5647 -106.7228 282° West 411 473 36,000  Level Albuquerque Center
Thu 02:25:19 PM 34.5894 -106.8572 283° West 406 467 36,000  Level Albuquerque Center
Thu 02:26:21 PM 34.6150 -106.9928 283° West 407 468 36,000  Level Albuquerque Center
Thu 02:27:23 PM 34.6392 -107.1250 283° West 401 461 36,000  Level Albuquerque Center
Thu 02:28:25 PM 34.6636 -107.2594 283° West 404 465 36,000  Level Albuquerque Center
Thu 02:29:27 PM 34.6867 -107.3925 282° West 403 464 36,000  Level Albuquerque Center
Thu 02:30:29 PM 34.7153 -107.5519 282° West 401 461 36,000  Level Albuquerque Center
Thu 02:31:31 PM 34.7394 -107.6867 282° West 405 466 36,000  Level Albuquerque Center
Thu 02:32:33 PM 34.7636 -107.8211 282° West 405 466 36,000  Level Albuquerque Center
Thu 02:33:35 PM 34.7872 -107.9550 282° West 405 466 36,000  Level Albuquerque Center
Thu 02:34:37 PM 34.8103 -108.0903 282° West 407 468 36,000  Level Albuquerque Center
Thu 02:35:39 PM 34.8353 -108.2258 283° West 409 471 36,000  Level Albuquerque Center
Thu 02:36:40 PM 34.8631 -108.3856 282° West 408 470 36,000  Level Albuquerque Center
Thu 02:37:42 PM 34.8844 -108.5178 281° West 411 473 36,000  Level Albuquerque Center
Thu 02:38:44 PM 34.9106 -108.6697 282° West 410 472 36,000  Level Albuquerque Center
Thu 02:39:46 PM 34.9328 -108.7994 282° West 409 471 36,000  Level Albuquerque Center
Thu 02:40:48 PM 34.9575 -108.9528 281° West 410 472 36,000  Level Albuquerque Center
Thu 02:41:50 PM 34.9794 -109.0831 282° West 410 472 36,000  Level Albuquerque Center
Thu 02:42:52 PM 35.0017 -109.2153 282° West 412 474 36,000  Level Albuquerque Center
Thu 02:43:54 PM 35.0256 -109.3686 281° West 413 475 36,000  Level Albuquerque Center
Thu 02:44:56 PM 35.0464 -109.4992 281° West 410 472 36,000  Level Albuquerque Center
Thu 02:45:58 PM 35.0722 -109.6528 282° West 411 473 36,000  Level Albuquerque Center
Thu 02:47:00 PM 35.0942 -109.7842 282° West 412 474 36,000  Level Albuquerque Center
Thu 02:48:02 PM 35.1186 -109.9411 281° West 416 479 36,000  Level Albuquerque Center
Thu 02:49:04 PM 35.1383 -110.0750 280° West 417 480 36,000  Level Albuquerque Center
Thu 02:50:06 PM 35.1578 -110.2078 280° West 415 478 36,000  Level Albuquerque Center
Thu 02:51:08 PM 35.1814 -110.3631 281° West 417 480 36,000  Level Albuquerque Center
Thu 02:52:10 PM 35.2011 -110.4983 280° West 419 482 36,000  Level Albuquerque Center
Thu 02:53:12 PM 35.2239 -110.6569 280° West 423 487 36,000 -146 Level Albuquerque Center
Thu 02:54:13 PM 35.2453 -110.7939 281° West 426 490 35,700 -488 Descending Albuquerque Center
Thu 02:55:15 PM 35.2700 -110.9553 281° West 430 495 35,000 -677 Descending Albuquerque Center
Thu 02:56:17 PM 35.2894 -111.0922 280° West 435 501 34,300 -677 Descending Albuquerque Center
Thu 02:57:19 PM 35.3136 -111.2611 280° West 444 511 33,600 -677 Descending Albuquerque Center
Thu 02:58:21 PM 35.3339 -111.3981 280° West 431 496 32,900 -677 Descending Albuquerque Center
Thu 02:59:23 PM 35.3578 -111.5614 280° West 447 514 32,200 -677 Descending Albuquerque Center
Thu 03:00:25 PM 35.3800 -111.7092 280° West 445 512 31,500 -677 Descending Albuquerque Center
Thu 03:01:27 PM 35.4003 -111.8569 280° West 444 511 30,800 -629 Descending Albuquerque Center
Thu 03:02:29 PM 35.4206 -112.0067 279° West 447 514 30,200 -390 Descending Albuquerque Center
Thu 03:03:30 PM 35.4411 -112.1567 280° West 449 517 30,000 -98 Descending Albuquerque Center
Thu 03:04:32 PM 35.4669 -112.3364 280° West 450 518 30,000  Level Albuquerque Center
Thu 03:05:34 PM 35.4861 -112.4878 279° West 452 520 30,000 -145 Level Albuquerque Center
Thu 03:06:36 PM 35.5069 -112.6378 280° West 452 520 29,700 -532 Descending Albuquerque Center
Thu 03:07:38 PM 35.5272 -112.7886 279° West 456 525 28,900 -774 Descending Albuquerque Center
Thu 03:08:40 PM 35.5472 -112.9361 280° West 453 521 28,100 -800 Descending Albuquerque Center
Thu 03:09:53 PM 35.5731 -113.1467 279° West 443 510 27,100 -889 Descending Los Angeles Center
Thu 03:10:55 PM 35.5919 -113.2861 279° West 439 505 26,100 -1,258 Descending Los Angeles Center
Thu 03:11:57 PM 35.6094 -113.4283 279° West 427 491 24,500 -1,500 Descending Los Angeles Center
Thu 03:12:59 PM 35.6272 -113.5706 279° West 424 488 23,000 -1,200 Descending Los Angeles Center
Thu 03:14:02 PM 35.6503 -113.7353 280° West 413 475 22,000 -1,680 Descending Los Angeles Center
Thu 03:15:04 PM 35.6708 -113.8736 280° West 412 474 19,500 -2,516 Descending Los Angeles Center
Thu 03:16:06 PM 35.6894 -114.0142 279° West 418 481 16,800 -2,763 Descending Los Angeles Center
Thu 03:17:23 PM 35.7206 -114.2003 282° West 413 475 13,100 -2,323 Descending Los Angeles Center
Thu 03:18:10 PM 35.7278 -114.2919 276° West 388 447 12,000 -836 Descending Los Angeles Center
Thu 03:19:25 PM 35.7856 -114.4014 303° West 306 352 11,400 -726 Descending Los Angeles Center
Thu 03:20:14 PM 35.8386 -114.4292 337° Northwest 305 351 10,500 -689 Descending Los Angeles Center
Thu 03:21:27 PM 35.9428 -114.4756 340° North 282 325 10,000 -288 Descending Los Angeles Center
Thu 03:22:19 PM 35.9981 -114.5033 338° Northwest 265 305 9,900 -105 Descending Los Angeles Center
Thu 03:23:21 PM 36.0433 -114.5581 316° Northwest 244 281 9,800 -390 Descending Los Angeles Center
Thu 03:24:22 PM 36.0539 -114.6200 282° West 232 267 9,100 -774 Descending Los Angeles Center
Thu 03:25:25 PM 36.0692 -114.7158 281° West 234 269 8,200 -912 Descending Los Angeles Center
Thu 03:26:27 PM 36.0739 -114.7956 274° West 233 268 7,200 -992 Descending Los Angeles Center
Thu 03:27:32 PM 36.0742 -114.8919 270° West 228 262 6,100 -1,015 Descending Los Angeles Center

Login

Don't have an account? Register now (free) for customized features, flight alerts, and more!